createdAt,value
2023-01-20T00:01:43.618Z,11.00
2023-01-20T00:04:11.706Z,13.35
2023-01-20T00:06:39.479Z,11.60
2023-01-20T00:09:07.558Z,9.45
2023-01-20T00:11:36.636Z,8.38
2023-01-20T00:14:04.441Z,12.48
2023-01-20T00:16:33.476Z,11.60
2023-01-20T00:19:01.221Z,13.52
2023-01-20T00:21:31.352Z,15.63
2023-01-20T00:23:59.040Z,10.00
2023-01-20T00:26:26.921Z,12.65
2023-01-20T00:28:57.658Z,10.40
2023-01-20T00:31:27.507Z,10.45
2023-01-20T00:33:57.011Z,9.48
2023-01-20T00:36:25.894Z,13.68
2023-01-20T00:38:53.944Z,11.68
2023-01-20T00:41:21.902Z,12.15
2023-01-20T00:43:49.664Z,12.13
2023-01-20T00:46:19.023Z,11.48
2023-01-20T00:48:46.772Z,11.52
2023-01-20T00:51:14.593Z,11.10
2023-01-20T00:53:42.326Z,10.48
2023-01-20T00:56:10.019Z,10.15
2023-01-20T00:58:37.705Z,12.55
2023-01-20T01:01:05.639Z,10.90
2023-01-20T01:03:35.865Z,11.63
2023-01-20T01:06:09.078Z,9.52
2023-01-20T01:08:37.053Z,9.25
2023-01-20T01:11:05.484Z,12.43
2023-01-20T01:13:33.795Z,9.07
2023-01-20T01:16:01.731Z,8.23
2023-01-20T01:18:29.593Z,10.05
2023-01-20T01:20:58.690Z,9.82
2023-01-20T01:23:26.408Z,11.65
2023-01-20T01:25:54.090Z,11.23
2023-01-20T01:28:21.746Z,10.25
2023-01-20T01:30:49.530Z,9.35
2023-01-20T01:33:17.254Z,9.90
2023-01-20T01:35:45.004Z,10.57
2023-01-20T01:38:14.068Z,7.80
2023-01-20T01:40:41.759Z,11.85
2023-01-20T01:43:21.619Z,10.15
2023-01-20T01:45:49.415Z,8.75
2023-01-20T01:48:19.592Z,9.15
2023-01-20T01:50:54.133Z,11.38
2023-01-20T01:53:23.840Z,11.45
2023-01-20T01:55:55.203Z,16.27
2023-01-20T01:58:28.795Z,13.05
2023-01-20T02:00:56.704Z,10.75
2023-01-20T02:03:24.928Z,8.77
2023-01-20T02:05:53.951Z,9.00
2023-01-20T02:08:23.654Z,7.88
2023-01-20T02:10:51.352Z,8.52
2023-01-20T02:13:19.357Z,7.72
2023-01-20T02:15:56.821Z,14.82
2023-01-20T02:18:37.814Z,9.40
2023-01-20T02:21:40.900Z,10.75
2023-01-20T02:24:53.307Z,11.15
2023-01-20T02:27:43.119Z,9.90
2023-01-20T02:30:35.723Z,13.05
2023-01-20T02:33:10.936Z,9.80
2023-01-20T02:35:44.615Z,9.98
2023-01-20T02:38:19.239Z,10.07
2023-01-20T02:40:55.352Z,8.30
2023-01-20T02:43:31.294Z,10.40
2023-01-20T02:46:06.717Z,9.95
2023-01-20T02:48:44.227Z,11.13
2023-01-20T02:51:21.152Z,9.80
2023-01-20T02:53:52.955Z,10.38
2023-01-20T02:56:28.099Z,9.38
2023-01-20T02:58:59.172Z,11.30
2023-01-20T03:01:32.961Z,8.75
2023-01-20T03:04:04.554Z,9.95
2023-01-20T03:06:37.619Z,10.68
2023-01-20T03:09:10.010Z,12.63
2023-01-20T03:11:42.082Z,12.85
2023-01-20T03:14:12.097Z,14.20
2023-01-20T03:16:41.738Z,14.13
2023-01-20T03:19:11.284Z,15.70
2023-01-20T03:21:39.025Z,13.70
2023-01-20T03:24:07.997Z,11.50
2023-01-20T03:26:38.820Z,12.75
2023-01-20T03:29:08.032Z,13.88
2023-01-20T03:31:40.499Z,12.90
2023-01-20T03:34:12.696Z,14.45
2023-01-20T03:36:41.471Z,12.30
2023-01-20T03:39:11.943Z,11.00
2023-01-20T03:41:52.117Z,13.32
2023-01-20T03:44:25.576Z,10.95
2023-01-20T03:46:58.046Z,12.85
2023-01-20T03:49:32.057Z,11.35
2023-01-20T03:52:06.012Z,10.75
2023-01-20T03:54:43.781Z,10.80
2023-01-20T03:57:16.154Z,9.40
2023-01-20T03:59:49.384Z,13.68
2023-01-20T04:02:17.159Z,9.93
2023-01-20T04:04:50.386Z,12.05
2023-01-20T04:07:22.318Z,13.45
2023-01-20T04:09:54.289Z,11.20
2023-01-20T04:12:22.064Z,13.95
2023-01-20T04:14:49.763Z,11.70
2023-01-20T04:17:17.700Z,11.57
2023-01-20T04:19:46.809Z,11.20
2023-01-20T04:22:24.183Z,11.80
2023-01-20T04:24:58.242Z,12.85
2023-01-20T04:27:25.975Z,12.13
2023-01-20T04:29:53.736Z,14.90
2023-01-20T04:32:21.439Z,12.75
2023-01-20T04:34:53.440Z,13.75
2023-01-20T04:37:26.128Z,12.43
2023-01-20T04:39:53.812Z,11.48
2023-01-20T04:42:21.497Z,16.83
2023-01-20T04:44:49.237Z,10.73
2023-01-20T04:47:16.931Z,12.73
2023-01-20T04:49:44.652Z,12.98
2023-01-20T04:52:13.762Z,13.65
2023-01-20T04:54:41.463Z,12.63
2023-01-20T04:57:09.201Z,15.15
2023-01-20T04:59:36.907Z,13.35
2023-01-20T05:02:04.630Z,13.73
2023-01-20T05:04:32.299Z,16.95
2023-01-20T05:07:00.019Z,15.23
2023-01-20T05:09:30.434Z,13.70
2023-01-20T05:11:59.418Z,15.30
2023-01-20T05:14:27.108Z,15.82
2023-01-20T05:16:55.288Z,15.60
2023-01-20T05:19:22.968Z,15.25
2023-01-20T05:21:53.661Z,15.82
2023-01-20T05:24:21.472Z,17.88
2023-01-20T05:26:49.120Z,14.23
2023-01-20T05:29:18.321Z,18.20
2023-01-20T05:31:46.081Z,14.25
2023-01-20T05:34:13.814Z,17.77
2023-01-20T05:36:41.538Z,17.05
2023-01-20T05:39:09.197Z,17.38
2023-01-20T05:41:36.943Z,17.52
2023-01-20T05:44:04.611Z,16.52
2023-01-20T05:46:33.708Z,18.67
2023-01-20T05:49:02.978Z,16.55
2023-01-20T05:51:32.068Z,18.05
2023-01-20T05:53:59.867Z,17.40
2023-01-20T05:56:27.553Z,19.17
2023-01-20T05:58:55.934Z,20.15
2023-01-20T06:01:24.151Z,19.60
2023-01-20T06:03:53.232Z,25.17
2023-01-20T06:06:20.930Z,20.90
2023-01-20T06:08:49.554Z,22.63
2023-01-20T06:11:18.002Z,25.10
2023-01-20T06:13:47.926Z,25.65
2023-01-20T06:16:17.151Z,26.65
2023-01-20T06:18:44.978Z,28.10
2023-01-20T06:21:14.045Z,29.00
2023-01-20T06:23:42.246Z,26.83
2023-01-20T06:26:13.567Z,28.25
2023-01-20T06:28:41.248Z,26.63
2023-01-20T06:31:10.956Z,26.48
2023-01-20T06:33:38.870Z,29.00
2023-01-20T06:36:07.004Z,25.92
2023-01-20T06:38:36.697Z,25.65
2023-01-20T06:41:06.517Z,25.92
2023-01-20T06:43:35.847Z,26.88
2023-01-20T06:46:05.123Z,23.90
2023-01-20T06:48:33.321Z,22.23
2023-01-20T06:51:04.567Z,26.35
2023-01-20T06:53:32.445Z,19.80
2023-01-20T06:56:02.460Z,21.65
2023-01-20T06:58:32.735Z,20.55
2023-01-20T07:01:08.657Z,21.50
2023-01-20T07:03:36.658Z,22.38
2023-01-20T07:06:06.405Z,26.83
2023-01-20T07:08:34.144Z,18.10
2023-01-20T07:11:05.501Z,19.73
2023-01-20T07:13:33.255Z,22.88
2023-01-20T07:16:01.000Z,18.25
2023-01-20T07:18:28.690Z,22.08
2023-01-20T07:20:57.035Z,22.75
2023-01-20T07:23:25.220Z,20.55
2023-01-20T07:25:58.724Z,20.85
2023-01-20T07:28:28.095Z,19.88
2023-01-20T07:30:55.946Z,25.27
2023-01-20T07:33:23.821Z,22.00
2023-01-20T07:35:55.136Z,23.10
2023-01-20T07:38:22.835Z,25.05
2023-01-20T07:40:50.482Z,26.23
2023-01-20T07:43:18.179Z,19.98
2023-01-20T07:45:47.297Z,24.10
2023-01-20T07:48:15.571Z,24.77
2023-01-20T07:50:43.267Z,21.83
2023-01-20T07:53:10.946Z,23.42
2023-01-20T07:55:38.645Z,23.48
2023-01-20T07:58:06.422Z,24.65
2023-01-20T08:00:34.168Z,23.58
2023-01-20T08:03:03.282Z,25.75
2023-01-20T08:05:33.532Z,25.55
2023-01-20T08:08:01.242Z,31.52
2023-01-20T08:10:29.226Z,23.85
2023-01-20T08:12:57.043Z,20.58
2023-01-20T08:15:24.780Z,23.77
2023-01-20T08:17:54.753Z,23.42
2023-01-20T08:20:24.015Z,22.88
2023-01-20T08:22:51.798Z,23.67
2023-01-20T08:25:19.712Z,21.45
2023-01-20T08:27:49.143Z,26.05
2023-01-20T08:30:17.093Z,22.35
2023-01-20T08:32:44.834Z,21.38
2023-01-20T08:35:12.996Z,22.67
2023-01-20T08:37:42.154Z,22.52
2023-01-20T08:40:11.943Z,19.52
2023-01-20T08:42:40.232Z,22.35
2023-01-20T08:45:09.835Z,21.92
2023-01-20T08:47:38.924Z,19.17
2023-01-20T08:50:08.622Z,20.98
2023-01-20T08:52:36.358Z,20.92
2023-01-20T08:55:06.038Z,20.35
2023-01-20T08:57:33.863Z,22.27
2023-01-20T09:00:01.812Z,18.90
2023-01-20T09:02:29.572Z,16.58
2023-01-20T09:04:57.288Z,17.25
2023-01-20T09:07:25.031Z,17.13
2023-01-20T09:09:52.892Z,17.88
2023-01-20T09:12:21.962Z,15.30
2023-01-20T09:14:49.745Z,17.77
2023-01-20T09:17:17.575Z,17.40
2023-01-20T09:19:45.286Z,16.40
2023-01-20T09:22:12.954Z,14.98
2023-01-20T09:24:41.355Z,15.25
2023-01-20T09:27:09.094Z,17.48
2023-01-20T09:29:38.144Z,16.88
2023-01-20T09:32:05.959Z,13.60
2023-01-20T09:34:34.809Z,15.48
2023-01-20T09:37:17.510Z,14.23
2023-01-20T09:40:02.482Z,12.10
2023-01-20T09:42:54.755Z,15.02
2023-01-20T09:45:29.071Z,18.23
2023-01-20T09:48:14.170Z,21.42
2023-01-20T09:51:07.362Z,13.10
2023-01-20T09:53:47.189Z,14.48
2023-01-20T09:56:17.931Z,16.77
2023-01-20T09:58:53.943Z,13.93
2023-01-20T10:01:33.716Z,11.35
2023-01-20T10:04:09.527Z,14.88
2023-01-20T10:06:41.954Z,14.02
2023-01-20T10:09:21.315Z,14.43
2023-01-20T10:11:50.506Z,12.02
2023-01-20T10:14:25.001Z,13.50
2023-01-20T10:16:59.399Z,12.95
2023-01-20T10:19:42.371Z,13.30
2023-01-20T10:22:14.301Z,13.77
2023-01-20T10:24:52.952Z,14.10
2023-01-20T10:27:20.703Z,11.00
2023-01-20T10:29:54.167Z,11.23
2023-01-20T10:32:33.352Z,12.25
2023-01-20T10:35:09.067Z,13.10
2023-01-20T10:37:37.340Z,11.18
2023-01-20T10:40:16.725Z,10.43
2023-01-20T10:42:48.454Z,12.18
2023-01-20T10:45:27.927Z,13.65
2023-01-20T10:48:06.891Z,10.23
2023-01-20T10:50:44.653Z,10.48
2023-01-20T10:53:35.714Z,12.70
2023-01-20T10:56:24.819Z,10.25
2023-01-20T10:58:52.851Z,11.60
2023-01-20T11:01:21.550Z,9.38
2023-01-20T11:03:51.001Z,13.70
2023-01-20T11:06:21.683Z,10.48
2023-01-20T11:08:49.952Z,10.73
2023-01-20T11:11:21.466Z,12.45
2023-01-20T11:13:53.906Z,10.85
2023-01-20T11:16:24.608Z,12.40
2023-01-20T11:19:01.748Z,10.27
2023-01-20T11:21:33.599Z,10.30
2023-01-20T11:24:01.730Z,14.68
2023-01-20T11:26:33.368Z,12.95
2023-01-20T11:29:03.027Z,9.10
2023-01-20T11:31:40.577Z,11.45
2023-01-20T11:34:24.262Z,9.15
2023-01-20T11:37:12.901Z,10.63
2023-01-20T11:40:00.186Z,10.43
2023-01-20T11:42:30.035Z,8.80
2023-01-20T11:45:19.754Z,8.70
2023-01-20T11:48:00.873Z,9.75
2023-01-20T11:50:35.368Z,11.48
2023-01-20T11:53:19.390Z,8.83
2023-01-20T11:55:51.162Z,8.35
2023-01-20T11:58:21.348Z,9.80
2023-01-20T12:00:51.306Z,8.57
2023-01-20T12:03:46.374Z,11.75
2023-01-20T12:06:19.978Z,10.60
2023-01-20T12:08:54.677Z,8.75
2023-01-20T12:11:28.459Z,8.18
2023-01-20T12:14:22.838Z,11.38
2023-01-20T12:16:58.225Z,10.75
2023-01-20T12:22:04.310Z,11.93
2023-01-20T12:24:53.365Z,12.80
2023-01-20T12:27:26.798Z,9.50
2023-01-20T12:29:59.736Z,12.02
2023-01-20T12:32:29.220Z,12.02
2023-01-20T12:34:57.016Z,10.27
2023-01-20T12:37:32.894Z,12.43
2023-01-20T12:40:20.074Z,13.27
2023-01-20T12:43:08.212Z,12.27
2023-01-20T12:45:46.945Z,12.45
2023-01-20T12:48:36.848Z,12.95
2023-01-20T12:51:20.654Z,12.48
2023-01-20T12:54:17.549Z,13.30
2023-01-20T12:56:53.639Z,14.30
2023-01-20T12:59:36.913Z,16.25
2023-01-20T13:02:30.296Z,14.50
2023-01-20T13:05:19.859Z,16.48
2023-01-20T13:08:01.952Z,16.73
2023-01-20T13:10:56.020Z,16.52
2023-01-20T13:13:55.785Z,16.42
2023-01-20T13:16:33.374Z,22.50
2023-01-20T13:19:11.437Z,20.77
2023-01-20T13:21:41.114Z,22.92
2023-01-20T13:24:18.930Z,23.77
2023-01-20T13:26:49.667Z,25.77
2023-01-20T13:29:24.695Z,24.63
2023-01-20T13:31:53.865Z,25.90
2023-01-20T13:34:35.978Z,26.20
2023-01-20T13:37:23.818Z,26.25
2023-01-20T13:39:53.201Z,25.52
2023-01-20T13:42:51.397Z,29.05
2023-01-20T13:45:25.753Z,25.85
2023-01-20T13:47:59.455Z,22.75
2023-01-20T13:50:31.059Z,24.90
2023-01-20T13:53:31.529Z,25.02
2023-01-20T13:56:00.779Z,27.80
2023-01-20T13:58:32.481Z,27.67
2023-01-20T14:01:04.580Z,28.85
2023-01-20T14:03:35.030Z,26.55
2023-01-20T14:06:06.016Z,27.83
2023-01-20T14:08:40.912Z,30.40
2023-01-20T14:11:12.545Z,30.77
2023-01-20T14:13:42.537Z,49.05
2023-01-20T14:16:20.609Z,35.67
2023-01-20T14:18:49.163Z,28.60
2023-01-20T14:21:23.536Z,26.67
2023-01-20T14:23:52.377Z,32.38
2023-01-20T14:26:24.825Z,29.65
2023-01-20T14:28:56.344Z,30.88
2023-01-20T14:31:33.984Z,28.83
2023-01-20T14:34:04.474Z,28.42
2023-01-20T14:36:34.136Z,31.08
2023-01-20T14:39:04.366Z,28.15
2023-01-20T14:41:35.041Z,29.00
2023-01-20T14:44:04.694Z,29.45
2023-01-20T14:46:34.102Z,34.08
2023-01-20T14:49:04.809Z,33.85
2023-01-20T14:51:34.230Z,32.67
2023-01-20T14:54:37.194Z,32.53
2023-01-20T14:57:21.825Z,32.95
2023-01-20T15:00:03.298Z,35.20
2023-01-20T15:02:33.332Z,34.42
2023-01-20T15:05:01.213Z,32.03
2023-01-20T15:07:29.225Z,32.78
2023-01-20T15:10:03.035Z,37.47
2023-01-20T15:12:55.809Z,35.67
2023-01-20T15:15:29.874Z,38.55
2023-01-20T15:18:15.960Z,42.60
2023-01-20T15:20:45.659Z,36.75
2023-01-20T15:23:32.697Z,42.17
2023-01-20T15:26:09.496Z,43.25
2023-01-20T15:28:42.444Z,37.83
2023-01-20T15:31:15.115Z,42.00
2023-01-20T15:33:43.173Z,44.00
2023-01-20T15:36:23.514Z,44.30
2023-01-20T15:38:51.712Z,38.95
2023-01-20T15:41:19.739Z,43.72
2023-01-20T15:43:49.107Z,41.65
2023-01-20T15:46:18.774Z,44.67
2023-01-20T15:48:47.270Z,41.20
2023-01-20T15:51:16.669Z,42.75
2023-01-20T15:53:45.524Z,41.53
2023-01-20T15:56:20.121Z,44.35
2023-01-20T15:58:48.382Z,42.47
2023-01-20T16:01:19.665Z,45.63
2023-01-20T16:03:47.593Z,46.67
2023-01-20T16:06:17.046Z,43.60
2023-01-20T16:08:47.705Z,43.63
2023-01-20T16:11:15.957Z,38.58
2023-01-20T16:13:44.448Z,45.08
2023-01-20T16:16:14.626Z,44.63
2023-01-20T16:18:44.004Z,43.55
2023-01-20T16:21:12.547Z,53.08
2023-01-20T16:23:40.484Z,50.13
2023-01-20T16:26:20.443Z,50.55
2023-01-20T16:28:48.134Z,40.95
2023-01-20T16:31:16.094Z,44.47
2023-01-20T16:33:46.531Z,46.28
2023-01-20T16:36:15.789Z,49.25
2023-01-20T16:38:44.738Z,46.42
2023-01-20T16:41:16.218Z,45.63
2023-01-20T16:43:44.823Z,48.53
2023-01-20T16:46:15.311Z,46.05
2023-01-20T16:48:50.085Z,45.70
2023-01-20T16:51:19.858Z,49.83
2023-01-20T16:53:47.623Z,44.47
2023-01-20T16:56:16.198Z,45.20
2023-01-20T16:58:44.027Z,42.13
2023-01-20T17:01:13.266Z,47.40
2023-01-20T17:03:41.381Z,47.33
2023-01-20T17:06:17.482Z,45.63
2023-01-20T17:08:45.750Z,46.50
2023-01-20T17:11:17.849Z,46.97
2023-01-20T17:13:45.667Z,47.42
2023-01-20T17:16:13.736Z,44.78
2023-01-20T17:18:44.688Z,45.92
2023-01-20T17:21:14.826Z,44.53
2023-01-20T17:23:44.134Z,45.78
2023-01-20T17:26:11.787Z,55.13
2023-01-20T17:28:41.810Z,56.47
2023-01-20T17:31:09.509Z,46.45
2023-01-20T17:33:37.265Z,45.50
2023-01-20T17:36:06.852Z,47.10
2023-01-20T17:38:36.253Z,48.20
2023-01-20T17:41:05.370Z,46.00
2023-01-20T17:43:33.736Z,47.50
2023-01-20T17:46:01.962Z,44.53
2023-01-20T17:48:30.181Z,47.38
2023-01-20T17:50:59.286Z,66.82
2023-01-20T17:53:27.451Z,54.92
2023-01-20T17:56:10.977Z,49.55
2023-01-20T17:58:40.475Z,49.60
2023-01-20T18:01:13.295Z,47.00
2023-01-20T18:03:43.053Z,49.25
2023-01-20T18:06:12.931Z,49.30
2023-01-20T18:08:40.792Z,56.90
2023-01-20T18:11:11.381Z,54.63
2023-01-20T18:13:39.744Z,58.28
2023-01-20T18:16:08.907Z,64.75
2023-01-20T18:18:36.598Z,53.45
2023-01-20T18:21:11.105Z,51.20
2023-01-20T18:23:39.524Z,53.67
2023-01-20T18:26:09.823Z,49.30
2023-01-20T18:28:38.475Z,56.33
2023-01-20T18:31:08.943Z,49.53
2023-01-20T18:33:39.711Z,54.42
2023-01-20T18:36:08.833Z,52.25
2023-01-20T18:38:36.536Z,52.30
2023-01-20T18:41:04.399Z,69.57
2023-01-20T18:43:33.441Z,49.95
2023-01-20T18:46:01.127Z,48.45
2023-01-20T18:48:28.783Z,46.25
2023-01-20T18:50:59.992Z,49.53
2023-01-20T18:53:38.795Z,49.63
2023-01-20T18:56:09.584Z,52.78
2023-01-20T18:58:41.277Z,49.45
2023-01-20T19:01:10.545Z,49.25
2023-01-20T19:03:39.465Z,46.63
2023-01-20T19:06:10.867Z,43.22
2023-01-20T19:08:39.128Z,48.15
2023-01-20T19:11:09.205Z,51.42
2023-01-20T19:13:38.258Z,47.72
2023-01-20T19:16:10.113Z,50.05
2023-01-20T19:18:38.045Z,48.10
2023-01-20T19:21:06.454Z,46.30
2023-01-20T19:23:34.171Z,43.83
2023-01-20T19:26:18.446Z,53.35
2023-01-20T19:28:48.658Z,48.90
2023-01-20T19:31:18.425Z,51.13
2023-01-20T19:33:48.885Z,49.05
2023-01-20T19:36:18.251Z,47.22
2023-01-20T19:38:46.559Z,45.80
2023-01-20T19:41:16.665Z,46.08
2023-01-20T19:43:45.445Z,48.55
2023-01-20T19:46:16.262Z,44.00
2023-01-20T19:48:44.322Z,48.13
2023-01-20T19:51:13.726Z,39.60
2023-01-20T19:53:41.729Z,40.65
2023-01-20T19:56:11.644Z,43.80
2023-01-20T19:58:40.111Z,39.70
2023-01-20T20:01:08.671Z,45.03
2023-01-20T20:03:38.083Z,42.47
2023-01-20T20:06:08.238Z,42.75
2023-01-20T20:08:36.737Z,45.72
2023-01-20T20:11:04.526Z,47.45
2023-01-20T20:13:32.201Z,46.53
2023-01-20T20:16:03.523Z,41.83
2023-01-20T20:18:31.455Z,41.47
2023-01-20T20:21:00.601Z,45.63
2023-01-20T20:23:29.797Z,51.05
2023-01-20T20:25:57.558Z,42.80
2023-01-20T20:28:25.639Z,45.20
2023-01-20T20:30:55.386Z,113.18
2023-01-20T20:33:24.082Z,199.55
2023-01-20T20:35:51.794Z,78.28
2023-01-20T20:38:20.830Z,49.83
2023-01-20T20:40:48.476Z,44.28
2023-01-20T20:43:16.163Z,40.83
2023-01-20T20:45:43.825Z,44.25
2023-01-20T20:48:11.531Z,43.15
2023-01-20T20:50:39.174Z,38.83
2023-01-20T20:53:06.905Z,40.13
2023-01-20T20:55:40.248Z,38.97
2023-01-20T20:58:08.473Z,41.60
2023-01-20T21:00:36.627Z,38.60
2023-01-20T21:03:06.835Z,39.10
2023-01-20T21:05:34.808Z,42.92
2023-01-20T21:08:04.683Z,40.65
2023-01-20T21:10:32.461Z,42.08
2023-01-20T21:13:01.487Z,40.80
2023-01-20T21:15:30.441Z,40.47
2023-01-20T21:17:58.303Z,43.67
2023-01-20T21:20:25.978Z,41.38
2023-01-20T21:22:53.667Z,43.80
2023-01-20T21:25:24.029Z,42.92
2023-01-20T21:27:51.760Z,39.33
2023-01-20T21:30:21.134Z,38.22
2023-01-20T21:32:48.823Z,39.55
2023-01-20T21:35:16.621Z,44.10
2023-01-20T21:37:44.476Z,36.60
2023-01-20T21:40:13.480Z,36.65
2023-01-20T21:42:41.208Z,35.10
2023-01-20T21:45:09.281Z,34.60
2023-01-20T21:47:38.381Z,35.67
2023-01-20T21:50:24.261Z,38.72
2023-01-20T21:52:52.099Z,37.88
2023-01-20T21:55:21.472Z,34.20
2023-01-20T21:57:51.512Z,36.85
2023-01-20T22:00:19.823Z,37.85
2023-01-20T22:02:48.985Z,36.55
2023-01-20T22:05:17.776Z,33.03
2023-01-20T22:07:47.810Z,37.75
2023-01-20T22:10:15.808Z,35.70
2023-01-20T22:12:43.584Z,32.25
2023-01-20T22:15:12.090Z,31.98
2023-01-20T22:17:41.363Z,31.30
2023-01-20T22:20:12.367Z,31.10
2023-01-20T22:22:40.011Z,31.58
2023-01-20T22:25:08.181Z,31.83
2023-01-20T22:27:35.811Z,35.95
2023-01-20T22:30:03.540Z,33.40
2023-01-20T22:32:31.234Z,34.88
2023-01-20T22:34:58.956Z,43.10
2023-01-20T22:37:27.991Z,38.60
2023-01-20T22:39:55.698Z,39.00
2023-01-20T22:42:23.344Z,42.63
2023-01-20T22:44:50.965Z,46.63
2023-01-20T22:47:18.617Z,45.65
2023-01-20T22:49:46.259Z,44.95
2023-01-20T22:52:14.102Z,43.78
2023-01-20T22:54:43.112Z,48.00
2023-01-20T23:01:55.115Z,55.42
2023-01-20T23:04:22.820Z,48.20
2023-01-20T23:06:50.464Z,52.72
2023-01-20T23:09:18.213Z,55.78
2023-01-20T23:11:46.776Z,53.25
2023-01-20T23:17:11.468Z,55.33
2023-01-20T23:19:39.134Z,53.50
2023-01-20T23:22:06.774Z,50.30
2023-01-20T23:24:34.564Z,51.53
2023-01-20T23:27:02.205Z,54.55
2023-01-20T23:29:30.051Z,50.92
2023-01-20T23:31:57.743Z,45.42
2023-01-20T23:34:27.268Z,48.95
2023-01-20T23:36:54.955Z,51.20
2023-01-20T23:39:22.790Z,49.20
2023-01-20T23:41:50.574Z,46.53
2023-01-20T23:44:18.207Z,48.88
2023-01-20T23:46:45.893Z,44.65
2023-01-20T23:49:13.581Z,41.17
2023-01-20T23:51:42.590Z,42.75
2023-01-20T23:54:13.271Z,44.08
2023-01-20T23:56:41.011Z,49.05
2023-01-20T23:59:08.685Z,46.92
